Terminal Aerodrome Forecast
Issued by NWS

Home | Current Version | Previous Version | Graphics & Text | Print | Product List | Glossary On
Versions: 1 2 3 4 5 6 7 8 9 10 11 12 13 14 15 16 17 18 19 20 21 22 23 24 25 26 27 28 29 30 31 32
000
FTUS43 KLOT 271516 AAA
TAFORD
TAF AMD
KORD 271516Z 2715/2818 07014KT P6SM OVC012
     FM271700 07015G20KT P6SM OVC020
     FM272300 07016G23KT 6SM SHRA SCT025 OVC035
     FM280200 08015KT 6SM -SHRA VCTS BKN020CB
     FM280900 08015KT P6SM VCSH SCT010 BKN015=

USA.gov is the U.S. government's official web portal to all federal, state and local government web resources and services.